Time;durP1;ratioP1;P1;durP2;ratioP2;P2;SDS_P1;SDS_P2;PMS_P1;PMS_P2;Temp;Humidity;BMP_temperature;BMP_pressure;BME280_temperature;BME280_humidity;BME280_pressure;Samples;Min_cycle;Max_cycle;Signal;HPM_P1;HPM_P2
2023/01/06 00:01:31;;;;;;;2.27;1.40;;;10.70;99.90;;;13.70;55.29;98223.47;5043392;28;20360;-51
2023/01/06 00:03:59;;;;;;;1.97;1.47;;;10.70;99.90;;;13.68;55.22;98225.47;5045127;28;20237;-48
2023/01/06 00:06:29;;;;;;;1.57;1.40;;;10.60;99.90;;;13.65;55.20;98217.78;5044726;28;20053;-48
2023/01/06 00:09:01;;;;;;;2.57;1.83;;;10.60;99.90;;;13.61;55.40;98221.81;5044619;28;20048;-51
2023/01/06 00:11:29;;;;;;;1.43;1.20;;;10.60;99.90;;;13.61;55.36;98215.59;5043733;28;20225;-49
2023/01/06 00:13:58;;;;;;;2.03;1.73;;;10.60;99.90;;;13.61;55.60;98218.28;5043846;28;20048;-52
2023/01/06 00:16:26;;;;;;;1.77;1.47;;;10.60;99.90;;;13.61;55.63;98216.47;5045165;28;20050;-51
2023/01/06 00:18:58;;;;;;;1.87;1.27;;;10.60;99.90;;;13.65;55.67;98212.44;5044832;28;20033;-47
2023/01/06 00:21:27;;;;;;;2.43;1.37;;;10.60;99.90;;;13.67;55.77;98202.41;5043596;28;20072;-47
2023/01/06 00:23:54;;;;;;;2.33;1.47;;;10.60;99.90;;;13.70;55.86;98210.09;5044547;28;20360;-48
2023/01/06 00:26:23;;;;;;;1.07;0.97;;;10.70;99.90;;;13.71;55.82;98209.09;5044635;28;20059;-49
2023/01/06 00:28:55;;;;;;;2.70;1.60;;;10.70;99.90;;;13.76;55.84;98192.53;5044452;28;20344;-47
2023/01/06 00:31:25;;;;;;;1.60;1.03;;;10.80;99.90;;;13.81;55.71;98190.19;5043632;28;20049;-50
2023/01/06 00:33:57;;;;;;;1.47;1.03;;;10.80;99.90;;;13.83;55.73;98187.34;5044501;28;20041;-49
2023/01/06 00:36:25;;;;;;;1.70;1.20;;;10.80;99.90;;;13.83;55.77;98187.34;5044413;28;20056;-47
2023/01/06 00:38:52;;;;;;;1.30;1.10;;;10.90;99.90;;;13.81;55.82;98184.84;5043236;28;20355;-48
2023/01/06 00:44:07;;;;;;;1.37;0.90;;;10.90;99.90;;;13.90;55.73;98178.47;5037406;28;20240;-48
2023/01/06 00:46:35;;;;;;;1.10;0.90;;;10.90;99.90;;;13.93;55.72;98175.44;5043019;28;20060;-47
2023/01/06 00:49:04;;;;;;;1.70;1.33;;;11.00;99.90;;;13.97;55.69;98173.28;5043436;28;20049;-48
2023/01/06 00:51:39;;;;;;;1.60;1.05;;;11.00;99.90;;;14.00;55.76;98183.66;5044024;28;20056;-50
2023/01/06 00:54:09;;;;;;;1.38;1.10;;;11.00;99.90;;;14.02;55.69;98184.31;5027064;28;20049;-51
2023/01/06 00:56:40;;;;;;;1.80;1.13;;;11.10;99.90;;;14.04;55.62;98182.31;5043610;28;20052;-48
2023/01/06 00:59:08;;;;;;;1.20;1.10;;;11.10;99.90;;;14.06;55.41;98174.94;5044106;28;20053;-48
2023/01/06 01:01:36;;;;;;;1.27;1.13;;;11.10;99.90;;;14.03;55.33;98175.25;5043896;28;20046;-47
2023/01/06 01:04:06;;;;;;;1.63;0.90;;;11.00;99.90;;;14.01;55.41;98169.25;5043873;28;20248;-49
2023/01/06 01:06:35;;;;;;;1.73;1.00;;;11.10;99.90;;;14.02;55.50;98178.13;5042590;28;20275;-51
2023/01/06 01:09:05;;;;;;;1.73;1.30;;;11.00;99.90;;;14.02;55.54;98181.63;5042274;28;20109;-47
2023/01/06 01:14:20;;;;;;;2.13;0.90;;;11.00;99.90;;;14.05;55.56;98178.59;5042815;28;20047;-48
2023/01/06 01:16:48;;;;;;;2.60;1.60;;;11.00;99.90;;;14.06;55.36;98179.47;5042002;28;20088;-51
2023/01/06 01:19:16;;;;;;;1.23;1.00;;;11.10;99.90;;;14.07;55.40;98176.59;5041710;28;20057;-49
2023/01/06 01:21:45;;;;;;;2.17;1.00;;;11.10;99.90;;;14.06;55.60;98174.94;5043460;28;20057;-48
2023/01/06 01:24:13;;;;;;;1.93;1.10;;;11.10;99.90;;;14.06;55.53;98176.78;5043484;28;20054;-48
2023/01/06 01:26:41;;;;;;;1.40;0.90;;;11.10;99.90;;;14.04;55.49;98176.94;5042959;28;20053;-52
2023/01/06 01:29:15;;;;;;;1.40;1.10;;;11.00;99.90;;;14.07;55.35;98175.75;5041977;28;20364;-50
2023/01/06 01:31:42;;;;;;;1.02;0.93;;;11.10;99.90;;;14.11;55.43;98177.94;5042133;28;20352;-49
2023/01/06 01:34:13;;;;;;;2.10;0.90;;;11.10;99.90;;;14.11;55.30;98171.75;5042225;28;20343;-51
2023/01/06 01:36:42;;;;;;;2.40;0.90;;;11.10;99.90;;;14.12;55.33;98165.38;5041655;28;20048;-50
2023/01/06 01:39:12;;;;;;;1.37;0.63;;;11.10;99.90;;;14.08;55.42;98169.41;5043154;28;20251;-51
2023/01/06 01:41:40;;;;;;;0.93;0.70;;;11.00;99.90;;;14.08;55.51;98164.06;5042776;28;20049;-52
2023/01/06 01:45:05;;;;;;;1.30;1.00;;;11.10;99.90;;;14.09;55.48;98165.72;5040331;28;20059;-48
2023/01/06 01:47:41;;;;;;;3.42;1.05;;;11.10;99.90;;;14.11;55.36;98169.06;5039076;28;20054;-47
2023/01/06 01:50:36;;;;;;;1.00;0.73;;;11.10;99.90;;;14.10;55.32;98160.19;5042972;28;20041;-49
2023/01/06 01:53:16;;;;;;;1.20;0.97;;;11.10;99.90;;;14.13;55.59;98153.66;5035109;28;20053;-51
2023/01/06 01:55:44;;;;;;;1.83;0.80;;;11.10;99.90;;;14.15;55.63;98162.34;5041504;28;20057;-49
2023/01/06 01:58:21;;;;;;;1.67;0.70;;;11.20;99.90;;;14.18;55.51;98156.66;5041160;28;20060;-51
2023/01/06 02:00:50;;;;;;;1.27;0.90;;;11.20;99.90;;;14.18;55.51;98154.81;5041438;28;20242;-47
2023/01/06 02:03:21;;;;;;;0.97;0.70;;;11.20;99.90;;;14.17;55.43;98153.16;5041704;28;20045;-49
2023/01/06 02:05:58;;;;;;;0.80;0.60;;;11.20;99.90;;;14.17;55.44;98157.66;5041425;28;20370;-50
2023/01/06 02:08:36;;;;;;;1.13;0.80;;;11.20;99.90;;;14.17;55.53;98155.84;5025061;28;20056;-51
2023/01/06 02:11:05;;;;;;;1.40;0.90;;;11.10;99.90;;;14.17;55.40;98158.53;5034197;28;20056;-47
2023/01/06 02:13:35;;;;;;;0.93;0.80;;;11.10;99.90;;;14.20;55.41;98154.66;5057462;28;20052;-50
2023/01/06 02:16:29;;;;;;;0.80;0.80;;;11.20;99.90;;;14.22;55.52;98159.84;5042277;28;20051;-52
2023/01/06 02:19:36;;;;;;;0.80;0.80;;;11.20;99.90;;;14.26;55.20;98159.31;5032351;28;20053;-48
2023/01/06 02:23:04;;;;;;;0.93;0.60;;;11.20;99.90;;;14.24;55.30;98147.13;5033903;28;20065;-51
2023/01/06 02:26:19;;;;;;;0.70;0.60;;;11.20;99.90;;;14.24;55.45;98141.75;5037402;28;20060;-50
2023/01/06 02:29:26;;;;;;;0.50;0.50;;;11.20;99.90;;;14.29;55.33;98145.59;5040665;28;20053;-50
2023/01/06 02:32:13;;;;;;;0.63;0.63;;;11.20;99.90;;;14.30;55.50;98138.38;5041228;28;20049;-51
2023/01/06 02:35:42;;;;;;;0.70;0.70;;;11.30;99.90;;;14.30;55.46;98141.06;5040748;28;20049;-49
2023/01/06 02:38:32;;;;;;;0.50;0.50;;;11.30;99.90;;;14.34;55.41;98142.38;5021848;28;20049;-50
2023/01/06 02:41:22;;;;;;;1.60;0.97;;;11.30;99.90;;;14.34;55.32;98147.75;5033147;28;20049;-49
2023/01/06 02:44:22;;;;;;;2.60;0.87;;;11.20;99.90;;;14.33;55.31;98151.44;5040656;28;20049;-48
2023/01/06 02:47:19;;;;;;;0.60;0.60;;;11.30;99.90;;;14.37;55.40;98150.09;5024308;28;20059;-51
2023/01/06 02:50:18;;;;;;;0.82;0.73;;;11.30;99.90;;;14.38;55.30;98151.75;5040376;28;20049;-53
2023/01/06 02:53:23;;;;;;;0.60;0.60;;;11.30;99.90;;;14.39;55.38;98137.34;5041389;28;20049;-49
2023/01/06 02:55:55;;;;;;;0.80;0.60;;;11.30;99.90;;;14.40;55.24;98135.50;5040843;28;20100;-51
2023/01/06 02:58:45;;;;;;;1.40;0.80;;;11.30;99.90;;;14.41;55.24;98137.19;5041643;28;20055;-50
2023/01/06 03:01:24;;;;;;;0.77;0.70;;;11.30;99.90;;;14.44;55.13;98134.97;5034912;28;20063;-52
2023/01/06 03:03:54;;;;;;;0.95;0.60;;;11.30;99.90;;;14.42;55.26;98138.84;5040590;28;20045;-49
2023/01/06 03:06:30;;;;;;;1.15;0.80;;;11.30;99.90;;;14.42;55.41;98131.63;5016715;28;20060;-51
2023/01/06 03:09:00;;;;;;;1.83;0.80;;;11.30;99.90;;;14.44;55.26;98126.09;5040474;28;20048;-51
2023/01/06 03:11:33;;;;;;;2.07;0.90;;;11.40;99.90;;;14.46;55.25;98126.75;5024754;28;20046;-51
2023/01/06 03:14:21;;;;;;;1.23;0.90;;;11.30;99.90;;;14.43;55.25;98125.28;5016761;28;20045;-50
2023/01/06 03:16:49;;;;;;;0.57;0.57;;;11.30;99.90;;;14.41;55.18;98121.94;5023963;28;20046;-48
2023/01/06 03:19:17;;;;;;;1.10;0.80;;;11.30;99.90;;;14.40;55.33;98116.75;5040359;28;20045;-47
2023/01/06 03:21:48;;;;;;;1.30;0.80;;;11.30;99.90;;;14.39;55.29;98129.31;5040393;28;20045;-50
2023/01/06 03:24:19;;;;;;;;;;;11.30;99.90;;;14.46;54.84;98116.91;5024860;28;20045;-52
2023/01/06 03:26:49;;;;;;;0.67;0.63;;;11.20;99.90;;;14.45;54.94;98119.75;5024299;28;19925;-52
2023/01/06 03:29:18;;;;;;;0.82;0.65;;;11.20;99.90;;;14.40;55.13;98117.56;5040158;28;20037;-47
2023/01/06 03:32:24;;;;;;;1.00;0.80;;;11.20;99.90;;;14.38;55.39;98120.47;5024221;28;20046;-49
2023/01/06 03:35:19;;;;;;;1.15;0.60;;;11.20;99.90;;;14.40;55.61;98119.44;5042295;28;20045;-48
2023/01/06 03:38:35;;;;;;;0.67;0.60;;;11.30;99.90;;;14.36;55.37;98114.44;5027686;28;20136;-51
2023/01/06 03:41:17;;;;;;;;;;;11.20;99.90;;;14.46;55.06;98111.56;5033686;28;20057;-49
2023/01/06 03:44:10;;;;;;;1.15;0.98;;;11.20;99.90;;;14.41;55.15;98115.75;5044296;28;19917;-47
2023/01/06 03:46:48;;;;;;;0.97;0.60;;;11.20;99.90;;;14.35;55.48;98115.44;5027945;28;20053;-50
2023/01/06 03:49:27;;;;;;;0.70;0.70;;;11.20;99.90;;;14.36;55.77;98118.94;5044074;28;20084;-49
2023/01/06 03:52:11;;;;;;;2.57;0.73;;;11.20;99.90;;;14.37;55.83;98118.78;5011755;28;20056;-47
2023/01/06 03:55:02;;;;;;;1.90;0.60;;;11.20;99.90;;;14.40;55.47;98122.09;5043874;28;20041;-50
2023/01/06 03:57:38;;;;;;;0.50;0.50;;;11.30;99.90;;;14.31;56.01;98119.47;5043475;28;20045;-50
2023/01/06 04:00:21;;;;;;;1.83;0.70;;;11.20;99.90;;;14.23;55.99;98138.25;5021473;28;20278;-48
2023/01/06 04:02:57;;;;;;;0.77;0.70;;;11.10;99.90;;;14.11;56.42;98132.44;5022227;28;20065;-47
2023/01/06 04:05:27;;;;;;;0.80;0.80;;;11.00;99.90;;;14.11;56.54;98137.78;5044644;28;20049;-49
2023/01/06 04:07:57;;;;;;;2.00;1.20;;;11.00;99.90;;;13.77;58.09;98132.66;5043603;28;20064;-48
2023/01/06 04:10:26;;;;;;;2.40;1.30;;;10.90;99.90;;;13.75;58.34;98135.50;5043652;28;20045;-47
2023/01/06 04:12:56;;;;;;;2.63;1.40;;;10.70;99.90;;;13.84;58.26;98139.03;5043785;28;20050;-47
2023/01/06 04:15:29;;;;;;;1.10;1.00;;;10.80;99.90;;;13.91;58.16;98128.47;5043976;28;20041;-48
2023/01/06 04:17:58;;;;;;;1.60;1.50;;;10.90;99.90;;;13.92;58.30;98127.44;5043474;28;20053;-50
2023/01/06 04:20:29;;;;;;;0.97;0.90;;;10.90;99.90;;;13.94;58.40;98128.97;5043589;28;20049;-50
2023/01/06 04:23:07;;;;;;;1.37;0.90;;;10.90;99.90;;;13.97;58.22;98120.56;5043488;28;20049;-48
2023/01/06 04:25:38;;;;;;;2.87;1.40;;;10.90;99.90;;;14.02;58.20;98124.59;5043779;28;20049;-50
2023/01/06 04:28:25;;;;;;;1.60;0.80;;;10.90;99.90;;;14.08;58.08;98123.91;5043144;28;20049;-48
2023/01/06 04:30:57;;;;;;;1.40;1.30;;;10.90;99.90;;;14.06;58.08;98120.56;5043510;28;20248;-50
2023/01/06 04:33:26;;;;;;;1.57;1.30;;;10.90;99.90;;;14.05;57.87;98119.72;5043283;28;20052;-50
2023/01/06 04:35:58;;;;;;;1.97;1.13;;;10.90;99.90;;;14.01;58.19;98115.72;5027863;28;20053;-48
2023/01/06 04:38:26;;;;;;;1.53;1.00;;;10.80;99.90;;;13.97;58.25;98107.19;5042737;28;20046;-50
2023/01/06 04:40:54;;;;;;;2.07;1.30;;;10.80;99.90;;;13.84;59.13;98104.22;5044218;28;20063;-48
2023/01/06 04:43:23;;;;;;;1.67;1.33;;;10.70;99.90;;;13.84;58.91;98106.91;5043327;28;20045;-49
2023/01/06 04:45:50;;;;;;;1.77;1.43;;;10.70;99.90;;;13.84;58.97;98109.59;5040123;28;20055;-48
2023/01/06 04:48:18;;;;;;;1.80;1.53;;;10.70;99.90;;;13.79;59.25;98104.72;5044019;28;20075;-51
2023/01/06 04:50:45;;;;;;;3.60;2.93;;;10.60;99.90;;;13.77;59.25;98104.06;5043971;28;20092;-51
2023/01/06 04:53:13;;;;;;;1.73;1.53;;;10.60;99.90;;;13.72;59.40;98098.38;5044251;28;20041;-52
2023/01/06 04:55:41;;;;;;;2.23;1.93;;;10.60;99.90;;;13.72;59.61;98095.69;5044178;28;20047;-49
2023/01/06 04:58:08;;;;;;;1.60;1.37;;;10.60;99.90;;;13.75;59.43;98092.69;5043661;28;20041;-50
2023/01/06 05:00:36;;;;;;;2.87;2.40;;;10.60;99.90;;;13.75;59.50;98092.69;5043979;28;20049;-53
2023/01/06 05:03:03;;;;;;;2.17;1.70;;;10.60;99.90;;;13.75;59.61;98083.84;5044035;28;20033;-50
2023/01/06 05:05:31;;;;;;;2.10;1.67;;;10.70;99.90;;;13.77;59.47;98082.66;5044008;28;20049;-51
2023/01/06 05:07:58;;;;;;;2.53;1.77;;;10.70;99.90;;;13.80;59.57;98084.13;5043427;28;20267;-48
2023/01/06 05:10:26;;;;;;;3.00;1.60;;;10.70;99.90;;;13.85;59.54;98079.13;5043597;28;20037;-51
2023/01/06 05:12:53;;;;;;;2.17;1.70;;;10.70;99.90;;;13.87;59.27;98086.97;5043737;28;20280;-51
2023/01/06 05:15:21;;;;;;;2.57;1.80;;;10.70;99.90;;;13.89;59.28;98088.47;5042750;28;20049;-51
2023/01/06 05:17:48;;;;;;;2.77;2.17;;;10.70;99.90;;;13.92;59.25;98090.81;5043086;28;20037;-51
2023/01/06 05:20:16;;;;;;;2.90;2.10;;;10.70;99.90;;;13.88;59.34;98086.81;5043606;28;20379;-50
2023/01/06 05:22:43;;;;;;;3.07;2.43;;;10.70;99.90;;;13.90;59.44;98087.47;5043499;28;20049;-48
2023/01/06 05:25:11;;;;;;;2.30;1.87;;;10.70;99.90;;;13.92;59.41;98073.91;5043909;28;20045;-50
2023/01/06 05:27:39;;;;;;;2.90;2.00;;;10.70;99.90;;;13.91;59.30;98074.94;5043329;28;20052;-48
2023/01/06 05:30:07;;;;;;;2.63;1.60;;;10.70;99.90;;;13.92;59.39;98080.13;5043326;28;20060;-48
2023/01/06 05:32:34;;;;;;;2.00;1.37;;;10.80;99.90;;;13.93;59.24;98076.41;5043448;28;20045;-49
2023/01/06 05:35:02;;;;;;;4.73;1.53;;;10.80;99.90;;;13.94;59.37;98072.75;5043310;28;20045;-49
2023/01/06 05:37:29;;;;;;;2.03;1.70;;;10.80;99.90;;;13.96;59.47;98077.94;5043220;28;20041;-51
2023/01/06 05:39:57;;;;;;;1.70;1.30;;;10.80;99.90;;;13.98;59.25;98070.56;5043160;28;20049;-52
2023/01/06 05:42:24;;;;;;;1.93;1.50;;;10.80;99.90;;;13.99;59.26;98072.22;5043364;28;20229;-50
2023/01/06 05:44:52;;;;;;;1.83;1.40;;;10.90;99.90;;;13.98;59.37;98070.56;5043305;28;20045;-48
2023/01/06 05:47:19;;;;;;;1.70;1.37;;;10.90;99.90;;;14.00;59.23;98063.19;5042782;28;20055;-48
2023/01/06 05:49:47;;;;;;;2.83;1.60;;;10.90;99.90;;;14.01;59.27;98059.50;5041766;28;20055;-48
2023/01/06 05:52:14;;;;;;;2.37;1.27;;;10.90;99.90;;;14.04;59.43;98075.22;5042908;28;20343;-49
2023/01/06 05:54:42;;;;;;;2.33;1.13;;;10.90;99.90;;;14.05;59.38;98073.38;5043136;28;20052;-49
2023/01/06 05:57:10;;;;;;;1.93;1.37;;;10.90;99.90;;;14.05;59.32;98074.19;5041792;28;20046;-49
2023/01/06 05:59:37;;;;;;;4.33;1.70;;;10.90;99.90;;;14.05;59.21;98070.69;5042863;28;20053;-51
2023/01/06 06:02:05;;;;;;;3.60;2.90;;;10.90;99.90;;;14.06;59.18;98073.22;5041796;28;20057;-51
2023/01/06 06:04:32;;;;;;;6.00;4.23;;;10.90;99.90;;;14.06;59.08;98075.88;5042936;28;20056;-51
2023/01/06 06:07:00;;;;;;;8.67;6.43;;;10.90;99.90;;;14.05;59.03;98078.72;5041455;28;20072;-50
2023/01/06 06:09:28;;;;;;;3.43;2.40;;;10.90;99.90;;;14.05;59.05;98084.09;5042178;28;20045;-51
2023/01/06 06:11:56;;;;;;;1.60;1.37;;;10.90;99.90;;;14.04;59.04;98088.59;5042643;28;20052;-49
2023/01/06 06:14:25;;;;;;;1.87;1.40;;;10.80;99.90;;;14.03;59.06;98088.78;5042911;28;20265;-51
2023/01/06 06:16:54;;;;;;;2.47;1.37;;;10.80;99.90;;;14.01;59.00;98098.81;5041946;28;20063;-48
2023/01/06 06:19:21;;;;;;;2.10;1.63;;;10.80;99.90;;;13.95;58.95;98095.00;5042551;28;20048;-51
2023/01/06 06:21:49;;;;;;;3.10;2.00;;;10.70;99.90;;;13.96;59.17;98088.63;5042328;28;20041;-50
2023/01/06 06:24:16;;;;;;;3.10;1.80;;;10.80;99.90;;;14.00;59.27;98087.28;5042455;28;20049;-49
2023/01/06 06:26:44;;;;;;;2.03;1.50;;;10.80;99.90;;;14.03;59.18;98100.31;5042379;28;20348;-49
2023/01/06 06:29:11;;;;;;;3.00;2.10;;;10.90;99.90;;;14.01;59.10;98101.50;5042506;28;20049;-51
2023/01/06 06:31:39;;;;;;;5.30;3.07;;;10.80;99.90;;;14.02;59.01;98105.84;5041187;28;20051;-53
2023/01/06 06:34:12;;;;;;;3.80;2.37;;;10.80;99.90;;;13.98;59.10;98102.69;5042535;28;20049;-53
2023/01/06 06:36:39;;;;;;;3.20;2.33;;;10.80;99.90;;;13.96;59.18;98100.19;5042098;28;20047;-54
2023/01/06 06:39:07;;;;;;;2.53;1.90;;;10.70;99.90;;;13.93;59.05;98110.38;5042440;28;20221;-53
2023/01/06 06:41:34;;;;;;;2.13;1.70;;;10.70;99.90;;;13.84;59.35;98112.25;5041888;28;20055;-52
2023/01/06 06:44:02;;;;;;;2.50;1.90;;;10.70;99.90;;;13.77;59.58;98117.44;5042031;28;20381;-49
2023/01/06 06:46:30;;;;;;;2.37;1.60;;;10.50;99.90;;;13.79;59.65;98112.75;5042028;28;20056;-53
2023/01/06 06:48:58;;;;;;;3.83;2.17;;;10.60;99.90;;;13.79;59.59;98119.94;5040472;28;20057;-51
2023/01/06 06:51:25;;;;;;;2.60;1.80;;;10.60;99.90;;;13.82;59.80;98114.25;5041942;28;20046;-52
2023/01/06 06:53:53;;;;;;;2.33;1.60;;;10.60;99.90;;;13.84;59.76;98122.97;5042117;28;20052;-52
2023/01/06 06:56:20;;;;;;;3.33;2.30;;;10.60;99.90;;;13.79;59.70;98126.13;5042005;28;20045;-51
2023/01/06 06:58:48;;;;;;;2.47;1.70;;;10.60;99.90;;;13.75;59.83;98126.66;5041091;28;20045;-51
2023/01/06 07:01:19;;;;;;;4.13;2.10;;;10.50;99.90;;;13.61;60.36;98124.66;5041854;28;20048;-48
2023/01/06 07:03:48;;;;;;;3.47;2.20;;;10.40;99.90;;;13.50;60.51;98120.50;5042008;28;20052;-48
2023/01/06 07:06:22;;;;;;;3.03;1.50;;;10.40;99.90;;;13.45;60.63;98130.84;5033175;28;20045;-49
2023/01/06 07:08:50;;;;;;;1.83;1.20;;;10.30;99.90;;;13.42;60.48;98132.03;5041436;28;20071;-51
2023/01/06 07:11:19;;;;;;;2.33;1.33;;;10.30;99.90;;;13.20;61.02;98144.16;5041932;28;20040;-53
2023/01/06 07:13:46;;;;;;;1.73;1.63;;;10.10;99.90;;;13.12;61.36;98144.16;5040836;28;20056;-49
2023/01/06 07:16:14;;;;;;;2.13;1.67;;;10.10;99.90;;;13.13;61.24;98148.53;5042250;28;20041;-51
2023/01/06 07:18:42;;;;;;;1.93;1.40;;;10.00;99.90;;;13.09;61.28;98145.34;5041713;28;20343;-53
2023/01/06 07:21:10;;;;;;;2.60;1.67;;;10.00;99.90;;;13.13;61.32;98151.19;5041734;28;20053;-52
2023/01/06 07:23:37;;;;;;;4.13;2.03;;;10.10;99.90;;;13.09;61.30;98150.69;5040888;28;20049;-50
2023/01/06 07:26:05;;;;;;;2.30;1.83;;;10.00;99.90;;;13.15;60.98;98163.38;5041495;28;20049;-50
2023/01/06 07:28:33;;;;;;;3.20;1.53;;;10.10;99.90;;;13.05;61.51;98165.38;5038323;28;20242;-49
2023/01/06 07:31:01;;;;;;;2.20;1.87;;;10.00;99.90;;;12.70;61.98;98166.47;5040170;28;20052;-51
2023/01/06 07:33:28;;;;;;;1.83;1.50;;;9.80;99.90;;;12.37;62.37;98166.34;5041071;28;20046;-53
2023/01/06 07:35:56;;;;;;;1.30;1.10;;;9.70;99.90;;;12.35;62.74;98157.66;5039737;28;20161;-50
2023/01/06 07:38:25;;;;;;;2.30;1.50;;;9.60;99.90;;;12.19;63.30;98166.38;5039802;28;20052;-51
2023/01/06 07:41:00;;;;;;;2.20;1.60;;;9.50;99.90;;;12.36;62.66;98167.31;5040518;28;20309;-50
2023/01/06 07:43:27;;;;;;;1.70;1.27;;;9.50;99.90;;;12.04;63.64;98173.31;5038970;28;20045;-49
2023/01/06 07:45:55;;;;;;;3.30;1.97;;;9.40;99.90;;;12.13;62.93;98175.88;5040995;28;20049;-53
2023/01/06 07:48:23;;;;;;;2.70;1.43;;;9.40;99.90;;;11.95;63.59;98188.44;5039565;28;20343;-48
2023/01/06 07:50:50;;;;;;;2.27;1.67;;;9.30;99.90;;;12.09;62.52;98181.69;5040708;28;20049;-51
2023/01/06 07:53:18;;;;;;;3.20;2.00;;;9.30;99.90;;;11.88;63.09;98185.50;5040715;28;20045;-50
2023/01/06 07:55:52;;;;;;;1.87;1.40;;;9.20;99.90;;;11.92;62.74;98188.75;5040474;28;20044;-48
2023/01/06 07:58:22;;;;;;;4.00;1.17;;;9.20;99.90;;;11.63;63.56;98200.50;5032696;28;20033;-48
2023/01/06 08:00:50;;;;;;;4.67;1.50;;;9.10;99.90;;;11.61;63.40;98190.00;5039602;28;20042;-51
2023/01/06 08:03:18;;;;;;;2.20;1.53;;;9.10;99.90;;;11.63;62.52;98182.69;5032733;28;20046;-51
2023/01/06 08:05:46;;;;;;;2.10;1.30;;;9.10;99.90;;;11.91;61.87;98187.91;5040728;28;20048;-50
2023/01/06 08:08:14;;;;;;;3.17;1.47;;;9.20;99.90;;;11.95;61.60;98177.78;5039813;28;20045;-52
2023/01/06 08:10:42;;;;;;;4.07;1.00;;;9.30;99.90;;;11.96;61.49;98188.28;5040275;28;20073;-51
2023/01/06 08:13:10;;;;;;;1.67;1.10;;;9.30;99.90;;;12.03;61.11;98188.50;5039487;28;20033;-54
2023/01/06 08:15:38;;;;;;;1.30;1.10;;;9.30;99.90;;;12.18;60.51;98180.75;5039554;28;20038;-53
2023/01/06 08:18:06;;;;;;;4.53;1.40;;;9.40;99.90;;;12.32;59.94;98184.66;5039231;28;20046;-53
2023/01/06 08:20:34;;;;;;;2.97;0.90;;;9.50;99.90;;;12.30;59.88;98192.00;5040608;28;20354;-52
2023/01/06 08:23:02;;;;;;;0.73;0.73;;;9.50;99.90;;;12.16;59.84;98193.41;5042845;28;20271;-53
2023/01/06 08:25:29;;;;;;;1.83;0.90;;;9.50;99.90;;;12.24;59.76;98190.78;5043997;28;20116;-52
2023/01/06 08:27:58;;;;;;;0.90;0.80;;;9.50;99.90;;;12.30;58.90;98192.81;5043586;28;20362;-50
2023/01/06 08:30:26;;;;;;;1.53;0.93;;;9.50;99.90;;;12.39;58.98;98191.03;5042820;28;20038;-52
2023/01/06 08:32:58;;;;;;;1.00;0.70;;;9.60;99.90;;;12.06;59.16;98192.66;5043404;28;20244;-52
2023/01/06 08:35:27;;;;;;;1.27;0.67;;;9.50;99.90;;;12.25;58.89;98189.78;5036402;28;20240;-51
2023/01/06 08:37:54;;;;;;;1.07;0.80;;;9.60;99.90;;;12.31;58.92;98196.31;5042336;28;20347;-50
2023/01/06 08:40:22;;;;;;;3.17;0.90;;;9.60;99.90;;;12.40;58.25;98184.69;5035648;28;20052;-50
2023/01/06 08:42:49;;;;;;;2.57;1.80;;;9.60;99.90;;;12.47;58.30;98187.56;5026109;28;20054;-49
2023/01/06 08:45:17;;;;;;;3.23;2.03;;;9.70;99.90;;;12.63;57.98;98197.47;5043634;28;20047;-48
2023/01/06 08:47:45;;;;;;;1.00;0.80;;;9.80;99.90;;;12.68;57.81;98192.47;5042587;28;20052;-51
2023/01/06 08:50:12;;;;;;;2.63;1.13;;;9.80;99.90;;;12.75;57.80;98197.00;5043670;28;20049;-49
2023/01/06 08:52:39;;;;;;;1.50;1.07;;;9.90;99.90;;;12.88;57.57;98191.22;5044346;28;20358;-53
2023/01/06 08:55:07;;;;;;;3.03;1.33;;;10.00;99.90;;;12.98;57.00;98188.41;5044361;28;20049;-49
2023/01/06 08:57:34;;;;;;;2.23;1.47;;;10.10;99.90;;;13.03;56.81;98194.13;5044001;28;20243;-48
2023/01/06 09:00:05;;;;;;;1.80;1.17;;;10.20;99.90;;;12.93;56.74;98198.75;5043819;28;20056;-48
2023/01/06 09:02:32;;;;;;;3.10;1.97;;;10.10;99.90;;;13.03;56.84;98209.28;5044254;28;20247;-50
2023/01/06 09:05:00;;;;;;;3.73;1.97;;;10.20;99.90;;;13.15;56.59;98202.66;5044139;28;20050;-50
2023/01/06 09:07:28;;;;;;;2.40;1.67;;;10.30;99.90;;;13.28;56.42;98194.13;5043892;28;20051;-50
2023/01/06 09:09:55;;;;;;;4.40;2.70;;;10.40;99.90;;;13.22;56.02;98197.47;5043887;28;20045;-50
2023/01/06 09:12:23;;;;;;;1.63;1.03;;;10.40;99.90;;;13.30;55.77;98197.50;5036010;28;20041;-56
2023/01/06 09:14:50;;;;;;;0.70;0.60;;;10.40;99.90;;;13.32;55.81;98206.25;5042801;28;20070;-51
2023/01/06 09:17:18;;;;;;;0.80;0.50;;;10.40;99.90;;;13.31;55.62;98209.91;5043345;28;20054;-52
2023/01/06 09:19:45;;;;;;;0.50;0.50;;;10.40;99.90;;;13.34;55.49;98205.06;5043744;28;20037;-54
2023/01/06 09:22:13;;;;;;;0.43;0.43;;;10.50;99.90;;;13.32;55.44;98216.94;5043494;28;20055;-49
2023/01/06 09:24:41;;;;;;;0.60;0.50;;;10.50;99.90;;;13.43;55.42;98210.41;5043783;28;20052;-51
2023/01/06 09:27:09;;;;;;;1.07;0.50;;;10.50;99.90;;;13.46;54.94;98210.94;5043421;28;20064;-52
2023/01/06 09:29:36;;;;;;;0.40;0.40;;;10.60;99.90;;;13.52;54.97;98228.16;5043398;28;20057;-53
2023/01/06 09:32:04;;;;;;;0.47;0.40;;;10.60;99.90;;;13.58;54.98;98230.16;5043482;28;20052;-48
2023/01/06 09:34:32;;;;;;;0.77;0.60;;;10.70;99.90;;;13.72;54.61;98234.84;5042675;28;20041;-49
2023/01/06 09:36:59;;;;;;;0.77;0.60;;;10.70;99.90;;;13.73;54.42;98238.38;5043285;28;20196;-48
2023/01/06 09:39:27;;;;;;;0.70;0.70;;;10.80;99.90;;;13.69;54.43;98240.53;5033667;28;20056;-50
2023/01/06 09:42:35;;;;;;;1.03;0.63;;;10.80;99.90;;;13.82;54.47;98237.34;5035746;28;20263;-51
2023/01/06 09:45:07;;;;;;;0.70;0.70;;;10.90;99.90;;;13.91;53.99;98235.50;5039305;28;20057;-49
2023/01/06 09:47:42;;;;;;;1.23;0.80;;;10.90;99.90;;;13.95;53.96;98237.69;5034755;28;20083;-51
2023/01/06 09:50:42;;;;;;;2.03;0.70;;;11.00;99.90;;;13.98;53.81;98237.34;5039040;28;20053;-53
2023/01/06 09:53:29;;;;;;;0.73;0.70;;;11.00;99.90;;;14.04;53.74;98230.50;5036413;28;20259;-51
2023/01/06 09:56:06;;;;;;;1.27;0.70;;;11.00;99.90;;;13.86;52.96;98243.19;5035936;28;20041;-49
2023/01/06 09:58:37;;;;;;;0.40;0.40;;;10.80;98.50;;;13.80;52.98;98228.66;5037683;28;20037;-52
2023/01/06 10:01:12;;;;;;;0.43;0.40;;;10.80;99.00;;;13.81;53.26;98232.19;5039254;28;20045;-52
2023/01/06 10:03:40;;;;;;;0.70;0.70;;;10.80;99.90;;;13.74;52.97;98232.81;5035548;28;20104;-50
2023/01/06 10:06:40;;;;;;;0.80;0.70;;;10.80;99.90;;;13.76;53.05;98225.50;5038950;28;20050;-50
2023/01/06 10:09:26;;;;;;;0.50;0.50;;;10.80;98.60;;;13.58;53.35;98217.59;5037777;28;20348;-50
2023/01/06 10:12:27;;;;;;;1.90;1.40;;;10.70;99.60;;;13.59;53.05;98203.25;5037889;28;20049;-49
2023/01/06 10:15:21;;;;;;;0.93;0.70;;;10.70;98.50;;;13.68;52.72;98203.25;5036255;28;20394;-50
2023/01/06 10:18:26;;;;;;;1.00;0.73;;;10.70;98.10;;;13.74;53.22;98202.56;5053409;28;20034;-50
2023/01/06 10:20:54;;;;;;;;;;;10.70;99.90;;;13.91;53.33;98195.38;5037064;28;20048;-50
2023/01/06 10:23:38;;;;;;;1.07;0.80;;;10.80;98.80;;;13.94;52.68;98187.84;5037466;28;19917;-49
2023/01/06 10:26:12;;;;;;;0.55;0.55;;;10.90;98.90;;;13.99;52.64;98190.81;5037299;28;20350;-55
2023/01/06 10:28:46;;;;;;;1.13;1.03;;;10.90;99.90;;;13.90;52.56;98185.66;5038706;28;20041;-51
2023/01/06 10:31:19;;;;;;;1.00;0.80;;;10.90;99.90;;;14.01;52.66;98187.97;5038617;28;20045;-50
2023/01/06 10:33:51;;;;;;;0.80;0.80;;;10.90;99.90;;;14.07;52.76;98189.16;5037696;28;20037;-51
2023/01/06 10:36:29;;;;;;;0.70;0.70;;;11.00;99.90;;;14.12;52.66;98184.13;5038307;28;20095;-53
2023/01/06 10:38:59;;;;;;;0.80;0.80;;;11.00;99.90;;;14.13;52.48;98183.09;5023449;28;20340;-49
2023/01/06 10:41:48;;;;;;;0.80;0.70;;;11.00;99.60;;;14.12;52.46;98176.94;5035993;28;20071;-49
2023/01/06 10:44:17;;;;;;;1.23;0.90;;;11.00;99.10;;;14.10;52.15;98176.25;5037737;28;20060;-51
2023/01/06 10:46:47;;;;;;;1.97;0.70;;;11.00;98.20;;;14.05;52.21;98172.41;5036847;28;20057;-52
2023/01/06 10:49:18;;;;;;;1.30;0.90;;;11.00;99.90;;;14.11;52.15;98177.09;5037033;28;20067;-51
2023/01/06 10:51:58;;;;;;;2.23;1.50;;;11.00;99.00;;;14.08;52.40;98172.09;5036591;28;20048;-51